CheckWX is a tool to help pilots better visualize weather data.  It is not intended as a substitute for an official pre-flight weather briefing.

22:16:47 UTC

OMAL TAF
Al Ain International Airport
Al Ain, United Arab Emirates
TAF OMAL 201700Z 2018/2200 32008KT 8000 NSC BECMG 2019/2021 VRB02KT BECMG 2022/2100 12005KT BECMG 2107/2109 32008KT BECMG 2118/2120 06006KT

Mar-20@
18:00 UTC

Mar-20 @ 18:00 UTC

Mar-20@
19:00 UTC

Mar-20 @ 19:00 UTC

TAF OMAL 201700Z 2018/2200 32008KT 8000 NSC

Expired

Wind
  • 320° at 8 KTS
Cloud Levels
  • No significant clouds

Mar-20@
19:00 UTC

Mar-20 @ 19:00 UTC

Mar-20@
22:00 UTC

Mar-20 @ 22:00 UTC

BECMG 2019/2021 VRB02KT

Expired

Wind
  • Variable at 2 KTS
Cloud Levels
  • No significant clouds

Mar-20@
22:00 UTC

Mar-20 @ 22:00 UTC

Mar-21@
07:00 UTC

Mar-21 @ 07:00 UTC

BECMG 2022/2100 12005KT

Becoming

Becoming Conditions expected by Thu, Mar 21, 2019 @ 00:00 UTC

Wind
  • 120° at 5 KTS
Cloud Levels
  • No significant clouds

Mar-21@
07:00 UTC

Mar-21 @ 07:00 UTC

Mar-21@
18:00 UTC

Mar-21 @ 18:00 UTC

BECMG 2107/2109 32008KT

Becoming

Becoming Conditions expected by Thu, Mar 21, 2019 @ 09:00 UTC

Wind
  • 320° at 8 KTS
Cloud Levels
  • No significant clouds

Mar-21@
18:00 UTC

Mar-21 @ 18:00 UTC

Mar-22@
00:00 UTC

Mar-22 @ 00:00 UTC

BECMG 2118/2120 06006KT

Becoming

Becoming Conditions expected by Thu, Mar 21, 2019 @ 20:00 UTC

Wind
  • 060° at 6 KTS
Cloud Levels
  • No significant clouds